sensor_id;sensor_type;location;lat;lon;timestamp;temperature;humidity
12089;DHT22;6107;49.078;8.578;2023-09-19T01:06:12;17.30;99.90
12089;DHT22;6107;49.078;8.578;2023-09-19T03:09:15;17.40;99.90
12089;DHT22;6107;49.078;8.578;2023-09-19T03:11:42;17.40;99.90
12089;DHT22;6107;49.078;8.578;2023-09-19T03:14:09;17.40;99.90
12089;DHT22;6107;49.078;8.578;2023-09-19T03:16:35;17.40;99.90
12089;DHT22;6107;49.078;8.578;2023-09-19T03:19:02;17.30;99.90
12089;DHT22;6107;49.078;8.578;2023-09-19T03:21:28;17.30;99.90
12089;DHT22;6107;49.078;8.578;2023-09-19T03:23:55;17.30;99.90
12089;DHT22;6107;49.078;8.578;2023-09-19T03:26:20;17.20;99.90
12089;DHT22;6107;49.078;8.578;2023-09-19T03:28:46;17.20;99.90
12089;DHT22;6107;49.078;8.578;2023-09-19T03:31:12;17.20;99.90
12089;DHT22;6107;49.078;8.578;2023-09-19T03:33:38;17.10;99.90
12089;DHT22;6107;49.078;8.578;2023-09-19T03:36:04;17.20;99.90
12089;DHT22;6107;49.078;8.578;2023-09-19T03:38:33;17.20;99.90
12089;DHT22;6107;49.078;8.578;2023-09-19T03:40:59;17.20;99.90
12089;DHT22;6107;49.078;8.578;2023-09-19T03:43:25;17.10;99.90
12089;DHT22;6107;49.078;8.578;2023-09-19T03:45:51;17.10;99.90
12089;DHT22;6107;49.078;8.578;2023-09-19T03:48:16;17.20;99.90
12089;DHT22;6107;49.078;8.578;2023-09-19T03:50:42;17.20;99.90
12089;DHT22;6107;49.078;8.578;2023-09-19T04:03:04;17.10;99.90
12089;DHT22;6107;49.078;8.578;2023-09-19T04:09:11;17.00;99.90
12089;DHT22;6107;49.078;8.578;2023-09-19T05:00:45;17.20;99.90
12089;DHT22;6107;49.078;8.578;2023-09-19T05:07:40;17.30;99.90
12089;DHT22;6107;49.078;8.578;2023-09-19T05:26:07;17.20;99.90
12089;DHT22;6107;49.078;8.578;2023-09-19T05:38:51;17.20;99.90
12089;DHT22;6107;49.078;8.578;2023-09-19T05:45:37;17.10;99.90
12089;DHT22;6107;49.078;8.578;2023-09-19T05:57:37;17.00;99.90
12089;DHT22;6107;49.078;8.578;2023-09-19T06:00:08;16.90;99.90
12089;DHT22;6107;49.078;8.578;2023-09-19T06:02:36;16.90;99.90
12089;DHT22;6107;49.078;8.578;2023-09-19T06:05:06;16.90;99.90
12089;DHT22;6107;49.078;8.578;2023-09-19T06:07:32;16.90;99.90
12089;DHT22;6107;49.078;8.578;2023-09-19T06:10:03;16.90;99.90
12089;DHT22;6107;49.078;8.578;2023-09-19T06:25:56;17.10;99.90
12089;DHT22;6107;49.078;8.578;2023-09-19T06:45:53;16.80;99.90
12089;DHT22;6107;49.078;8.578;2023-09-19T06:48:20;16.90;99.90
12089;DHT22;6107;49.078;8.578;2023-09-19T06:50:46;16.80;99.90
12089;DHT22;6107;49.078;8.578;2023-09-19T06:53:49;16.90;99.90
12089;DHT22;6107;49.078;8.578;2023-09-19T06:56:44;17.00;99.90
12089;DHT22;6107;49.078;8.578;2023-09-19T06:59:37;17.10;99.90
12089;DHT22;6107;49.078;8.578;2023-09-19T07:05:50;17.30;99.90
12089;DHT22;6107;49.078;8.578;2023-09-19T07:08:26;17.30;99.90
12089;DHT22;6107;49.078;8.578;2023-09-19T07:11:00;16.70;99.90
12089;DHT22;6107;49.078;8.578;2023-09-19T07:13:30;16.90;99.90
12089;DHT22;6107;49.078;8.578;2023-09-19T07:30:11;17.10;99.90
12089;DHT22;6107;49.078;8.578;2023-09-19T07:33:27;17.10;99.90
12089;DHT22;6107;49.078;8.578;2023-09-19T08:04:43;18.20;99.90
12089;DHT22;6107;49.078;8.578;2023-09-19T08:07:11;18.30;99.90
12089;DHT22;6107;49.078;8.578;2023-09-19T08:09:37;18.40;99.90
12089;DHT22;6107;49.078;8.578;2023-09-19T08:20:36;18.50;99.90
12089;DHT22;6107;49.078;8.578;2023-09-19T08:33:53;18.60;99.90
12089;DHT22;6107;49.078;8.578;2023-09-19T08:36:21;18.60;99.90
12089;DHT22;6107;49.078;8.578;2023-09-19T08:38:46;18.70;99.90
12089;DHT22;6107;49.078;8.578;2023-09-19T08:41:12;18.70;99.90
12089;DHT22;6107;49.078;8.578;2023-09-19T08:43:37;18.60;99.90
12089;DHT22;6107;49.078;8.578;2023-09-19T08:46:14;18.90;99.90
12089;DHT22;6107;49.078;8.578;2023-09-19T08:48:54;19.00;99.90
12089;DHT22;6107;49.078;8.578;2023-09-19T08:51:49;18.80;99.90
12089;DHT22;6107;49.078;8.578;2023-09-19T08:54:24;18.80;99.90
12089;DHT22;6107;49.078;8.578;2023-09-19T08:56:53;18.80;99.90
12089;DHT22;6107;49.078;8.578;2023-09-19T08:59:21;18.80;99.90
12089;DHT22;6107;49.078;8.578;2023-09-19T09:01:49;18.90;99.90
12089;DHT22;6107;49.078;8.578;2023-09-19T09:04:19;18.90;99.90
12089;DHT22;6107;49.078;8.578;2023-09-19T09:06:46;18.80;99.90
12089;DHT22;6107;49.078;8.578;2023-09-19T09:09:15;18.90;99.90
12089;DHT22;6107;49.078;8.578;2023-09-19T09:11:40;19.20;99.90
12089;DHT22;6107;49.078;8.578;2023-09-19T09:14:06;19.60;99.90
12089;DHT22;6107;49.078;8.578;2023-09-19T09:16:33;19.60;99.90
12089;DHT22;6107;49.078;8.578;2023-09-19T09:18:58;19.50;99.90
12089;DHT22;6107;49.078;8.578;2023-09-19T13:26:32;25.00;77.70
12089;DHT22;6107;49.078;8.578;2023-09-19T13:28:57;25.30;83.50
12089;DHT22;6107;49.078;8.578;2023-09-19T13:31:23;25.00;82.00
12089;DHT22;6107;49.078;8.578;2023-09-19T13:33:49;24.40;79.20
12089;DHT22;6107;49.078;8.578;2023-09-19T13:36:15;24.30;81.60
12089;DHT22;6107;49.078;8.578;2023-09-19T13:38:41;24.90;78.00
12089;DHT22;6107;49.078;8.578;2023-09-19T13:41:10;25.70;80.00
12089;DHT22;6107;49.078;8.578;2023-09-19T13:43:39;25.00;79.10
12089;DHT22;6107;49.078;8.578;2023-09-19T13:46:05;24.10;80.50
12089;DHT22;6107;49.078;8.578;2023-09-19T13:48:33;23.90;80.50
12089;DHT22;6107;49.078;8.578;2023-09-19T13:51:02;23.50;81.40
12089;DHT22;6107;49.078;8.578;2023-09-19T13:53:28;23.30;80.90
12089;DHT22;6107;49.078;8.578;2023-09-19T13:55:54;23.30;81.50
12089;DHT22;6107;49.078;8.578;2023-09-19T13:58:19;23.20;80.50
12089;DHT22;6107;49.078;8.578;2023-09-19T14:00:46;23.10;83.80
12089;DHT22;6107;49.078;8.578;2023-09-19T14:33:11;23.70;79.40
12089;DHT22;6107;49.078;8.578;2023-09-19T14:35:37;23.80;81.30
12089;DHT22;6107;49.078;8.578;2023-09-19T14:38:03;24.10;80.70
12089;DHT22;6107;49.078;8.578;2023-09-19T14:40:29;24.10;80.20
12089;DHT22;6107;49.078;8.578;2023-09-19T14:42:54;23.80;78.90
12089;DHT22;6107;49.078;8.578;2023-09-19T14:45:20;24.70;79.00
12089;DHT22;6107;49.078;8.578;2023-09-19T14:47:46;24.80;79.00
12089;DHT22;6107;49.078;8.578;2023-09-19T14:50:12;25.50;75.80
12089;DHT22;6107;49.078;8.578;2023-09-19T14:52:38;25.00;75.60
12089;DHT22;6107;49.078;8.578;2023-09-19T14:55:06;24.90;76.50
12089;DHT22;6107;49.078;8.578;2023-09-19T14:57:31;25.20;77.90
12089;DHT22;6107;49.078;8.578;2023-09-19T14:59:57;25.10;75.10
12089;DHT22;6107;49.078;8.578;2023-09-19T15:02:23;24.90;77.20
12089;DHT22;6107;49.078;8.578;2023-09-19T15:04:49;25.20;76.10
12089;DHT22;6107;49.078;8.578;2023-09-19T15:07:16;25.60;75.40
12089;DHT22;6107;49.078;8.578;2023-09-19T15:10:01;25.40;76.30
12089;DHT22;6107;49.078;8.578;2023-09-19T15:47:25;24.70;78.90
12089;DHT22;6107;49.078;8.578;2023-09-19T15:59:46;23.80;80.90
12089;DHT22;6107;49.078;8.578;2023-09-19T16:02:12;23.50;81.80
12089;DHT22;6107;49.078;8.578;2023-09-19T16:04:37;23.70;82.30
12089;DHT22;6107;49.078;8.578;2023-09-19T16:07:03;23.50;83.60
12089;DHT22;6107;49.078;8.578;2023-09-19T16:09:30;23.30;84.00
12089;DHT22;6107;49.078;8.578;2023-09-19T16:11:55;23.00;93.40
12089;DHT22;6107;49.078;8.578;2023-09-19T16:23:28;22.40;97.00
12089;DHT22;6107;49.078;8.578;2023-09-19T16:33:03;21.90;97.80
12089;DHT22;6107;49.078;8.578;2023-09-19T16:35:28;21.70;99.90
12089;DHT22;6107;49.078;8.578;2023-09-19T16:37:54;21.50;99.90
12089;DHT22;6107;49.078;8.578;2023-09-19T16:40:20;21.20;99.90
12089;DHT22;6107;49.078;8.578;2023-09-19T16:42:45;21.10;99.90
12089;DHT22;6107;49.078;8.578;2023-09-19T16:45:11;21.00;99.90
12089;DHT22;6107;49.078;8.578;2023-09-19T16:47:36;20.70;99.90
12089;DHT22;6107;49.078;8.578;2023-09-19T16:50:02;20.70;99.90
12089;DHT22;6107;49.078;8.578;2023-09-19T16:52:28;20.50;99.90
12089;DHT22;6107;49.078;8.578;2023-09-19T16:54:53;20.60;99.90
12089;DHT22;6107;49.078;8.578;2023-09-19T16:57:19;20.40;99.90
12089;DHT22;6107;49.078;8.578;2023-09-19T16:59:47;20.30;99.90
12089;DHT22;6107;49.078;8.578;2023-09-19T17:02:14;20.10;99.90
12089;DHT22;6107;49.078;8.578;2023-09-19T17:04:40;20.10;99.90
12089;DHT22;6107;49.078;8.578;2023-09-19T17:07:07;20.00;99.90
12089;DHT22;6107;49.078;8.578;2023-09-19T17:09:32;20.10;99.90
12089;DHT22;6107;49.078;8.578;2023-09-19T17:11:58;19.70;99.90
12089;DHT22;6107;49.078;8.578;2023-09-19T17:14:24;19.60;99.90
12089;DHT22;6107;49.078;8.578;2023-09-19T17:16:49;19.70;99.90
12089;DHT22;6107;49.078;8.578;2023-09-19T17:19:15;19.40;99.90
12089;DHT22;6107;49.078;8.578;2023-09-19T17:21:49;19.20;99.90
12089;DHT22;6107;49.078;8.578;2023-09-19T17:24:15;19.20;99.90
12089;DHT22;6107;49.078;8.578;2023-09-19T17:26:40;19.00;99.90
12089;DHT22;6107;49.078;8.578;2023-09-19T17:29:08;19.00;99.90
12089;DHT22;6107;49.078;8.578;2023-09-19T17:31:35;18.70;99.90
12089;DHT22;6107;49.078;8.578;2023-09-19T17:34:02;18.80;99.90
12089;DHT22;6107;49.078;8.578;2023-09-19T17:36:27;18.70;99.90
12089;DHT22;6107;49.078;8.578;2023-09-19T17:38:54;18.80;99.90
12089;DHT22;6107;49.078;8.578;2023-09-19T17:41:22;18.50;99.90
12089;DHT22;6107;49.078;8.578;2023-09-19T17:43:54;18.30;99.90
12089;DHT22;6107;49.078;8.578;2023-09-19T17:46:20;18.20;99.90
12089;DHT22;6107;49.078;8.578;2023-09-19T17:52:07;17.90;99.90
12089;DHT22;6107;49.078;8.578;2023-09-19T17:54:40;17.70;99.90
12089;DHT22;6107;49.078;8.578;2023-09-19T17:57:08;17.60;99.90
12089;DHT22;6107;49.078;8.578;2023-09-19T17:59:34;17.60;99.90
12089;DHT22;6107;49.078;8.578;2023-09-19T18:01:59;17.60;99.90
12089;DHT22;6107;49.078;8.578;2023-09-19T18:04:25;17.50;99.90
12089;DHT22;6107;49.078;8.578;2023-09-19T18:06:51;17.40;99.90
12089;DHT22;6107;49.078;8.578;2023-09-19T18:09:16;17.50;99.90
12089;DHT22;6107;49.078;8.578;2023-09-19T18:11:43;17.50;99.90
12089;DHT22;6107;49.078;8.578;2023-09-19T18:14:09;17.10;99.90
12089;DHT22;6107;49.078;8.578;2023-09-19T18:16:35;17.10;99.90
12089;DHT22;6107;49.078;8.578;2023-09-19T18:19:02;17.00;99.90
12089;DHT22;6107;49.078;8.578;2023-09-19T18:21:28;16.90;99.90
12089;DHT22;6107;49.078;8.578;2023-09-19T18:23:55;16.70;99.90
12089;DHT22;6107;49.078;8.578;2023-09-19T18:26:22;16.50;99.90
12089;DHT22;6107;49.078;8.578;2023-09-19T18:28:51;16.90;99.90
12089;DHT22;6107;49.078;8.578;2023-09-19T18:31:17;16.80;99.90
12089;DHT22;6107;49.078;8.578;2023-09-19T18:33:45;16.30;99.90
12089;DHT22;6107;49.078;8.578;2023-09-19T18:36:15;16.90;99.90
12089;DHT22;6107;49.078;8.578;2023-09-19T18:38:42;16.70;99.90
12089;DHT22;6107;49.078;8.578;2023-09-19T18:41:09;17.00;99.90
12089;DHT22;6107;49.078;8.578;2023-09-19T18:43:36;17.00;99.90
12089;DHT22;6107;49.078;8.578;2023-09-19T18:46:03;16.80;99.90
12089;DHT22;6107;49.078;8.578;2023-09-19T18:48:38;17.10;99.90
12089;DHT22;6107;49.078;8.578;2023-09-19T18:51:07;17.10;99.90
12089;DHT22;6107;49.078;8.578;2023-09-19T18:53:34;17.30;99.90
12089;DHT22;6107;49.078;8.578;2023-09-19T18:58:29;17.20;99.90
12089;DHT22;6107;49.078;8.578;2023-09-19T19:01:09;17.20;99.90
12089;DHT22;6107;49.078;8.578;2023-09-19T19:03:35;17.00;99.90
12089;DHT22;6107;49.078;8.578;2023-09-19T19:06:05;16.70;99.90
12089;DHT22;6107;49.078;8.578;2023-09-19T19:08:41;16.90;99.90
12089;DHT22;6107;49.078;8.578;2023-09-19T19:11:11;16.90;99.90
12089;DHT22;6107;49.078;8.578;2023-09-19T19:13:39;16.80;99.90
12089;DHT22;6107;49.078;8.578;2023-09-19T19:16:06;16.90;99.90
12089;DHT22;6107;49.078;8.578;2023-09-19T19:18:37;16.70;99.90
12089;DHT22;6107;49.078;8.578;2023-09-19T19:21:05;17.00;99.90
12089;DHT22;6107;49.078;8.578;2023-09-19T19:23:33;17.30;99.90
12089;DHT22;6107;49.078;8.578;2023-09-19T19:26:01;16.80;99.90
12089;DHT22;6107;49.078;8.578;2023-09-19T19:28:32;16.90;99.90
12089;DHT22;6107;49.078;8.578;2023-09-19T19:31:00;16.80;99.90
12089;DHT22;6107;49.078;8.578;2023-09-19T19:33:26;16.90;99.90
12089;DHT22;6107;49.078;8.578;2023-09-19T19:35:52;17.00;99.90
12089;DHT22;6107;49.078;8.578;2023-09-19T19:38:19;17.10;99.90
12089;DHT22;6107;49.078;8.578;2023-09-19T19:40:45;17.00;99.90
12089;DHT22;6107;49.078;8.578;2023-09-19T19:43:11;17.00;99.90
12089;DHT22;6107;49.078;8.578;2023-09-19T19:45:37;17.00;99.90
12089;DHT22;6107;49.078;8.578;2023-09-19T19:48:03;17.10;99.90
12089;DHT22;6107;49.078;8.578;2023-09-19T19:50:37;16.90;99.90
12089;DHT22;6107;49.078;8.578;2023-09-19T19:53:03;16.90;99.90
12089;DHT22;6107;49.078;8.578;2023-09-19T19:55:31;16.50;99.90
12089;DHT22;6107;49.078;8.578;2023-09-19T19:57:57;16.50;99.90
12089;DHT22;6107;49.078;8.578;2023-09-19T20:00:24;16.40;99.90
12089;DHT22;6107;49.078;8.578;2023-09-19T20:02:53;16.30;99.90
12089;DHT22;6107;49.078;8.578;2023-09-19T20:05:19;16.30;99.90
12089;DHT22;6107;49.078;8.578;2023-09-19T20:07:47;16.60;99.90
12089;DHT22;6107;49.078;8.578;2023-09-19T20:10:13;16.30;99.90
12089;DHT22;6107;49.078;8.578;2023-09-19T20:12:41;16.30;99.90
12089;DHT22;6107;49.078;8.578;2023-09-19T20:15:08;16.60;99.90
12089;DHT22;6107;49.078;8.578;2023-09-19T20:17:37;16.40;99.90
12089;DHT22;6107;49.078;8.578;2023-09-19T20:20:12;16.30;99.90
12089;DHT22;6107;49.078;8.578;2023-09-19T20:22:54;16.40;99.90
12089;DHT22;6107;49.078;8.578;2023-09-19T20:25:25;16.70;99.90
12089;DHT22;6107;49.078;8.578;2023-09-19T20:27:53;16.70;99.90
12089;DHT22;6107;49.078;8.578;2023-09-19T21:07:36;15.90;99.90
12089;DHT22;6107;49.078;8.578;2023-09-19T21:10:02;15.90;99.90
12089;DHT22;6107;49.078;8.578;2023-09-19T21:12:31;15.70;99.90
12089;DHT22;6107;49.078;8.578;2023-09-19T21:14:56;15.80;99.90
12089;DHT22;6107;49.078;8.578;2023-09-19T21:17:25;15.70;99.90
12089;DHT22;6107;49.078;8.578;2023-09-19T21:19:51;15.90;99.90
12089;DHT22;6107;49.078;8.578;2023-09-19T21:22:17;15.80;99.90
12089;DHT22;6107;49.078;8.578;2023-09-19T21:24:42;15.60;99.90
12089;DHT22;6107;49.078;8.578;2023-09-19T21:27:08;15.70;99.90
12089;DHT22;6107;49.078;8.578;2023-09-19T21:29:34;15.90;99.90
12089;DHT22;6107;49.078;8.578;2023-09-19T21:32:00;15.90;99.90
12089;DHT22;6107;49.078;8.578;2023-09-19T22:18:55;15.30;99.90
12089;DHT22;6107;49.078;8.578;2023-09-19T22:21:20;15.10;99.90
